sensor_id;sensor_type;location;lat;lon;timestamp;pressure;altitude;pressure_sealevel;temperature;humidity
55424;BME280;41294;42.666;23.350;2024-03-06T00:01:39;94655.69;;;7.84;94.11
55424;BME280;41294;42.666;23.350;2024-03-06T00:04:04;94654.72;;;7.91;93.73
55424;BME280;41294;42.666;23.350;2024-03-06T00:06:30;94659.41;;;7.96;93.70
55424;BME280;41294;42.666;23.350;2024-03-06T00:08:56;94659.28;;;7.99;93.12
55424;BME280;41294;42.666;23.350;2024-03-06T00:11:21;94649.63;;;7.87;93.77
55424;BME280;41294;42.666;23.350;2024-03-06T00:13:47;94655.56;;;7.88;93.78
55424;BME280;41294;42.666;23.350;2024-03-06T00:16:13;94643.28;;;7.97;93.36
55424;BME280;41294;42.666;23.350;2024-03-06T00:18:39;94648.41;;;8.01;93.43
55424;BME280;41294;42.666;23.350;2024-03-06T00:21:05;94654.97;;;8.05;92.81
55424;BME280;41294;42.666;23.350;2024-03-06T00:23:31;94654.72;;;8.12;92.06
55424;BME280;41294;42.666;23.350;2024-03-06T00:25:57;94656.00;;;7.86;93.02
55424;BME280;41294;42.666;23.350;2024-03-06T00:28:23;94650.38;;;7.97;92.91
55424;BME280;41294;42.666;23.350;2024-03-06T00:30:49;94646.81;;;7.82;93.22
55424;BME280;41294;42.666;23.350;2024-03-06T00:33:15;94645.66;;;7.83;93.63
55424;BME280;41294;42.666;23.350;2024-03-06T00:35:40;94649.09;;;7.80;93.81
55424;BME280;41294;42.666;23.350;2024-03-06T00:38:06;94646.66;;;7.64;94.14
55424;BME280;41294;42.666;23.350;2024-03-06T00:40:31;94649.09;;;7.58;94.45
55424;BME280;41294;42.666;23.350;2024-03-06T00:42:57;94653.50;;;7.61;94.55
55424;BME280;41294;42.666;23.350;2024-03-06T00:45:24;94651.41;;;7.56;95.02
55424;BME280;41294;42.666;23.350;2024-03-06T00:47:50;94657.63;;;7.50;95.27
55424;BME280;41294;42.666;23.350;2024-03-06T00:50:15;94655.28;;;7.52;95.49
55424;BME280;41294;42.666;23.350;2024-03-06T00:52:42;94653.81;;;7.51;95.07
55424;BME280;41294;42.666;23.350;2024-03-06T00:55:09;94656.88;;;7.49;95.03
55424;BME280;41294;42.666;23.350;2024-03-06T00:57:35;94660.25;;;7.37;95.60
55424;BME280;41294;42.666;23.350;2024-03-06T01:00:01;94652.91;;;7.45;95.25
55424;BME280;41294;42.666;23.350;2024-03-06T01:02:31;94656.97;;;7.46;94.91
55424;BME280;41294;42.666;23.350;2024-03-06T01:04:56;94652.41;;;7.25;95.58
55424;BME280;41294;42.666;23.350;2024-03-06T01:07:22;94655.81;;;7.13;96.62
55424;BME280;41294;42.666;23.350;2024-03-06T01:09:47;94654.94;;;7.16;96.39
55424;BME280;41294;42.666;23.350;2024-03-06T01:12:13;94661.34;;;7.15;96.21
55424;BME280;41294;42.666;23.350;2024-03-06T01:14:38;94661.75;;;7.14;96.16
55424;BME280;41294;42.666;23.350;2024-03-06T01:17:04;94670.03;;;7.12;96.64
55424;BME280;41294;42.666;23.350;2024-03-06T01:19:30;94658.94;;;7.08;96.61
55424;BME280;41294;42.666;23.350;2024-03-06T01:21:56;94658.56;;;6.97;96.68
55424;BME280;41294;42.666;23.350;2024-03-06T01:24:21;94663.69;;;6.88;97.01
55424;BME280;41294;42.666;23.350;2024-03-06T01:26:47;94660.88;;;6.70;98.19
55424;BME280;41294;42.666;23.350;2024-03-06T01:29:12;94661.91;;;6.60;99.03
55424;BME280;41294;42.666;23.350;2024-03-06T01:31:37;94662.63;;;6.61;99.03
55424;BME280;41294;42.666;23.350;2024-03-06T01:34:03;94665.78;;;6.56;98.35
55424;BME280;41294;42.666;23.350;2024-03-06T01:36:28;94662.72;;;6.57;98.74
55424;BME280;41294;42.666;23.350;2024-03-06T01:38:54;94665.66;;;6.59;99.35
55424;BME280;41294;42.666;23.350;2024-03-06T01:41:20;94666.59;;;6.53;98.74
55424;BME280;41294;42.666;23.350;2024-03-06T01:43:45;94664.53;;;6.48;99.00
55424;BME280;41294;42.666;23.350;2024-03-06T01:46:12;94657.50;;;6.33;99.77
55424;BME280;41294;42.666;23.350;2024-03-06T01:48:37;94658.22;;;6.33;100.00
55424;BME280;41294;42.666;23.350;2024-03-06T01:51:03;94668.44;;;6.28;100.00
55424;BME280;41294;42.666;23.350;2024-03-06T01:53:31;94661.34;;;6.28;100.00
55424;BME280;41294;42.666;23.350;2024-03-06T01:55:57;94660.31;;;6.38;100.00
55424;BME280;41294;42.666;23.350;2024-03-06T01:58:24;94661.38;;;6.53;100.00
55424;BME280;41294;42.666;23.350;2024-03-06T02:00:50;94668.06;;;6.54;100.00
55424;BME280;41294;42.666;23.350;2024-03-06T02:03:17;94665.25;;;6.49;100.00
55424;BME280;41294;42.666;23.350;2024-03-06T02:05:44;94661.81;;;6.52;100.00
55424;BME280;41294;42.666;23.350;2024-03-06T02:08:10;94665.25;;;6.49;100.00
55424;BME280;41294;42.666;23.350;2024-03-06T02:10:35;94669.50;;;6.30;99.66
55424;BME280;41294;42.666;23.350;2024-03-06T02:13:01;94672.53;;;6.29;99.92
55424;BME280;41294;42.666;23.350;2024-03-06T02:15:27;94677.13;;;6.25;100.00
55424;BME280;41294;42.666;23.350;2024-03-06T02:17:52;94676.28;;;6.28;100.00
55424;BME280;41294;42.666;23.350;2024-03-06T02:20:24;94679.63;;;6.16;99.59
55424;BME280;41294;42.666;23.350;2024-03-06T02:22:50;94682.22;;;6.16;100.00
55424;BME280;41294;42.666;23.350;2024-03-06T02:25:16;94673.44;;;6.10;100.00
55424;BME280;41294;42.666;23.350;2024-03-06T02:27:42;94684.78;;;5.91;100.00
55424;BME280;41294;42.666;23.350;2024-03-06T02:30:08;94692.91;;;5.93;100.00
55424;BME280;41294;42.666;23.350;2024-03-06T02:32:34;94685.94;;;6.02;100.00
55424;BME280;41294;42.666;23.350;2024-03-06T02:35:03;94688.28;;;5.84;100.00
55424;BME280;41294;42.666;23.350;2024-03-06T02:37:33;94693.75;;;5.90;100.00
55424;BME280;41294;42.666;23.350;2024-03-06T02:39:59;94695.22;;;5.91;100.00
55424;BME280;41294;42.666;23.350;2024-03-06T02:42:27;94687.78;;;5.89;100.00
55424;BME280;41294;42.666;23.350;2024-03-06T02:44:52;94694.56;;;5.87;100.00
55424;BME280;41294;42.666;23.350;2024-03-06T02:47:19;94695.94;;;5.91;100.00
55424;BME280;41294;42.666;23.350;2024-03-06T02:49:44;94697.09;;;5.90;100.00
55424;BME280;41294;42.666;23.350;2024-03-06T02:52:10;94691.63;;;5.85;100.00
55424;BME280;41294;42.666;23.350;2024-03-06T02:54:35;94692.28;;;5.89;100.00
55424;BME280;41294;42.666;23.350;2024-03-06T02:57:01;94694.38;;;5.94;100.00
55424;BME280;41294;42.666;23.350;2024-03-06T02:59:27;94694.66;;;5.83;100.00
55424;BME280;41294;42.666;23.350;2024-03-06T03:01:52;94690.38;;;5.89;100.00
55424;BME280;41294;42.666;23.350;2024-03-06T03:04:18;94695.00;;;5.85;100.00
55424;BME280;41294;42.666;23.350;2024-03-06T03:06:43;94695.47;;;5.80;100.00
55424;BME280;41294;42.666;23.350;2024-03-06T03:09:09;94701.97;;;5.88;100.00
55424;BME280;41294;42.666;23.350;2024-03-06T03:11:37;94696.50;;;5.99;100.00
55424;BME280;41294;42.666;23.350;2024-03-06T03:14:03;94700.75;;;5.93;100.00
55424;BME280;41294;42.666;23.350;2024-03-06T03:16:28;94700.34;;;5.94;99.94
55424;BME280;41294;42.666;23.350;2024-03-06T03:18:55;94701.41;;;5.97;100.00
55424;BME280;41294;42.666;23.350;2024-03-06T03:21:22;94698.56;;;5.91;99.44
55424;BME280;41294;42.666;23.350;2024-03-06T03:23:48;94698.56;;;5.91;99.61
55424;BME280;41294;42.666;23.350;2024-03-06T03:26:15;94705.66;;;5.91;98.86
55424;BME280;41294;42.666;23.350;2024-03-06T03:28:40;94709.41;;;5.90;98.74
55424;BME280;41294;42.666;23.350;2024-03-06T03:31:09;94710.41;;;5.80;99.16
55424;BME280;41294;42.666;23.350;2024-03-06T03:33:44;94712.84;;;5.87;98.47
55424;BME280;41294;42.666;23.350;2024-03-06T03:36:09;94712.63;;;5.81;98.52
55424;BME280;41294;42.666;23.350;2024-03-06T03:38:36;94712.84;;;5.71;98.36
55424;BME280;41294;42.666;23.350;2024-03-06T03:41:07;94712.69;;;5.78;98.41
55424;BME280;41294;42.666;23.350;2024-03-06T03:43:33;94715.47;;;5.87;98.21
55424;BME280;41294;42.666;23.350;2024-03-06T03:45:58;94704.91;;;5.90;98.14
55424;BME280;41294;42.666;23.350;2024-03-06T03:48:24;94714.31;;;5.72;98.88
55424;BME280;41294;42.666;23.350;2024-03-06T03:50:50;94720.63;;;5.59;99.30
55424;BME280;41294;42.666;23.350;2024-03-06T03:53:15;94714.34;;;5.56;99.55
55424;BME280;41294;42.666;23.350;2024-03-06T03:55:41;94720.47;;;5.50;99.64
55424;BME280;41294;42.666;23.350;2024-03-06T03:58:07;94717.38;;;5.39;100.00
55424;BME280;41294;42.666;23.350;2024-03-06T04:00:33;94717.47;;;5.35;100.00
55424;BME280;41294;42.666;23.350;2024-03-06T04:02:58;94719.03;;;5.33;100.00
55424;BME280;41294;42.666;23.350;2024-03-06T04:05:25;94724.97;;;5.33;100.00
55424;BME280;41294;42.666;23.350;2024-03-06T04:07:51;94721.31;;;5.31;100.00
55424;BME280;41294;42.666;23.350;2024-03-06T04:10:16;94726.59;;;5.27;100.00
55424;BME280;41294;42.666;23.350;2024-03-06T04:12:42;94730.50;;;5.35;100.00
55424;BME280;41294;42.666;23.350;2024-03-06T04:15:08;94731.19;;;5.39;100.00
55424;BME280;41294;42.666;23.350;2024-03-06T04:17:34;94732.41;;;5.35;100.00
55424;BME280;41294;42.666;23.350;2024-03-06T04:20:02;94739.16;;;5.32;99.50
55424;BME280;41294;42.666;23.350;2024-03-06T04:22:28;94746.16;;;5.19;100.00
55424;BME280;41294;42.666;23.350;2024-03-06T04:24:54;94747.63;;;5.20;100.00
55424;BME280;41294;42.666;23.350;2024-03-06T04:27:21;94746.66;;;5.30;99.97
55424;BME280;41294;42.666;23.350;2024-03-06T04:29:46;94746.25;;;5.32;99.55
55424;BME280;41294;42.666;23.350;2024-03-06T04:32:12;94752.28;;;5.29;98.80
55424;BME280;41294;42.666;23.350;2024-03-06T04:34:37;94750.09;;;5.27;98.78
55424;BME280;41294;42.666;23.350;2024-03-06T04:37:03;94750.56;;;5.22;98.33
55424;BME280;41294;42.666;23.350;2024-03-06T04:39:28;94755.78;;;5.22;99.00
55424;BME280;41294;42.666;23.350;2024-03-06T04:41:54;94754.69;;;5.04;99.24
55424;BME280;41294;42.666;23.350;2024-03-06T04:44:19;94751.44;;;5.00;99.43
55424;BME280;41294;42.666;23.350;2024-03-06T04:46:45;94754.44;;;4.98;99.70
55424;BME280;41294;42.666;23.350;2024-03-06T04:49:10;94755.47;;;5.04;99.57
55424;BME280;41294;42.666;23.350;2024-03-06T04:51:35;94760.81;;;4.97;99.38
55424;BME280;41294;42.666;23.350;2024-03-06T04:54:01;94764.41;;;5.03;99.71
55424;BME280;41294;42.666;23.350;2024-03-06T04:56:26;94764.91;;;5.14;99.39
55424;BME280;41294;42.666;23.350;2024-03-06T04:58:52;94770.78;;;5.18;98.55
55424;BME280;41294;42.666;23.350;2024-03-06T05:01:17;94762.63;;;5.16;98.29
55424;BME280;41294;42.666;23.350;2024-03-06T05:03:43;94767.59;;;5.11;98.97
55424;BME280;41294;42.666;23.350;2024-03-06T05:06:08;94776.09;;;5.15;98.58
55424;BME280;41294;42.666;23.350;2024-03-06T05:08:34;94773.56;;;5.11;98.32
55424;BME280;41294;42.666;23.350;2024-03-06T05:11:00;94778.19;;;5.04;98.50
55424;BME280;41294;42.666;23.350;2024-03-06T05:13:27;94779.22;;;5.06;98.90
55424;BME280;41294;42.666;23.350;2024-03-06T05:15:52;94778.28;;;5.16;98.87
55424;BME280;41294;42.666;23.350;2024-03-06T05:18:20;94780.44;;;5.37;97.67
55424;BME280;41294;42.666;23.350;2024-03-06T05:20:46;94774.53;;;5.49;96.97
55424;BME280;41294;42.666;23.350;2024-03-06T05:23:11;94779.09;;;5.61;96.90
55424;BME280;41294;42.666;23.350;2024-03-06T05:25:38;94780.81;;;5.68;96.13
55424;BME280;41294;42.666;23.350;2024-03-06T05:28:04;94775.00;;;5.76;95.73
55424;BME280;41294;42.666;23.350;2024-03-06T05:30:30;94785.16;;;5.74;95.98
55424;BME280;41294;42.666;23.350;2024-03-06T05:32:56;94776.16;;;5.75;95.84
55424;BME280;41294;42.666;23.350;2024-03-06T05:35:21;94780.66;;;5.74;96.18
55424;BME280;41294;42.666;23.350;2024-03-06T05:37:47;94780.41;;;5.85;95.58
55424;BME280;41294;42.666;23.350;2024-03-06T05:40:12;94787.03;;;6.05;95.87
55424;BME280;41294;42.666;23.350;2024-03-06T05:42:38;94792.19;;;6.50;94.43
55424;BME280;41294;42.666;23.350;2024-03-06T05:45:04;94802.22;;;6.79;91.66
55424;BME280;41294;42.666;23.350;2024-03-06T05:47:38;94799.44;;;7.11;91.60
55424;BME280;41294;42.666;23.350;2024-03-06T05:50:07;94801.44;;;7.44;90.76
55424;BME280;41294;42.666;23.350;2024-03-06T05:52:33;94806.34;;;7.55;89.11
55424;BME280;41294;42.666;23.350;2024-03-06T05:54:59;94806.13;;;7.49;89.53
55424;BME280;41294;42.666;23.350;2024-03-06T05:57:24;94805.19;;;7.56;89.15
55424;BME280;41294;42.666;23.350;2024-03-06T05:59:50;94811.25;;;7.40;89.97
55424;BME280;41294;42.666;23.350;2024-03-06T06:02:16;94808.31;;;7.38;90.02
55424;BME280;41294;42.666;23.350;2024-03-06T06:04:42;94817.41;;;7.09;91.25
55424;BME280;41294;42.666;23.350;2024-03-06T06:07:07;94815.94;;;7.08;92.60
55424;BME280;41294;42.666;23.350;2024-03-06T06:09:33;94810.13;;;7.29;91.97
55424;BME280;41294;42.666;23.350;2024-03-06T06:11:58;94816.06;;;7.30;91.92
55424;BME280;41294;42.666;23.350;2024-03-06T06:14:24;94814.72;;;7.25;92.18
55424;BME280;41294;42.666;23.350;2024-03-06T06:16:52;94812.50;;;7.48;91.53
55424;BME280;41294;42.666;23.350;2024-03-06T06:19:18;94819.09;;;7.53;91.61
55424;BME280;41294;42.666;23.350;2024-03-06T06:21:43;94815.34;;;7.54;90.16
55424;BME280;41294;42.666;23.350;2024-03-06T06:24:09;94811.91;;;7.57;90.81
55424;BME280;41294;42.666;23.350;2024-03-06T06:26:34;94815.31;;;7.79;90.47
55424;BME280;41294;42.666;23.350;2024-03-06T06:29:00;94809.25;;;8.28;89.11
55424;BME280;41294;42.666;23.350;2024-03-06T06:31:26;94808.94;;;8.13;87.13
55424;BME280;41294;42.666;23.350;2024-03-06T06:33:53;94809.84;;;7.98;87.49
55424;BME280;41294;42.666;23.350;2024-03-06T06:36:18;94808.34;;;8.10;87.01
55424;BME280;41294;42.666;23.350;2024-03-06T06:38:45;94809.13;;;7.85;87.56
55424;BME280;41294;42.666;23.350;2024-03-06T06:41:11;94813.00;;;7.81;87.83
55424;BME280;41294;42.666;23.350;2024-03-06T06:43:36;94799.25;;;8.02;87.50
55424;BME280;41294;42.666;23.350;2024-03-06T06:46:02;94799.66;;;8.00;87.44
55424;BME280;41294;42.666;23.350;2024-03-06T06:48:30;94798.25;;;8.20;86.70
55424;BME280;41294;42.666;23.350;2024-03-06T06:50:56;94803.53;;;8.42;85.08
55424;BME280;41294;42.666;23.350;2024-03-06T06:53:21;94808.84;;;8.51;84.18
55424;BME280;41294;42.666;23.350;2024-03-06T06:55:47;94815.50;;;8.64;83.81
55424;BME280;41294;42.666;23.350;2024-03-06T06:58:12;94820.28;;;8.23;84.45
55424;BME280;41294;42.666;23.350;2024-03-06T07:00:38;94818.06;;;7.63;87.84
55424;BME280;41294;42.666;23.350;2024-03-06T07:03:03;94822.25;;;7.60;88.62
55424;BME280;41294;42.666;23.350;2024-03-06T07:05:29;94819.53;;;8.22;85.91
55424;BME280;41294;42.666;23.350;2024-03-06T07:07:54;94825.28;;;7.71;88.03
55424;BME280;41294;42.666;23.350;2024-03-06T07:10:21;94826.75;;;7.85;88.27
55424;BME280;41294;42.666;23.350;2024-03-06T07:12:46;94816.31;;;8.06;86.38
55424;BME280;41294;42.666;23.350;2024-03-06T07:15:12;94822.38;;;8.49;85.54
55424;BME280;41294;42.666;23.350;2024-03-06T07:17:37;94819.09;;;9.31;82.10
55424;BME280;41294;42.666;23.350;2024-03-06T07:20:03;94813.28;;;9.84;78.66
55424;BME280;41294;42.666;23.350;2024-03-06T07:22:31;94815.84;;;10.05;77.17
55424;BME280;41294;42.666;23.350;2024-03-06T07:24:56;94818.66;;;10.38;76.47
55424;BME280;41294;42.666;23.350;2024-03-06T07:27:22;94822.28;;;10.58;75.43
55424;BME280;41294;42.666;23.350;2024-03-06T07:29:47;94815.22;;;9.92;76.37
55424;BME280;41294;42.666;23.350;2024-03-06T07:32:13;94817.16;;;9.62;78.40
55424;BME280;41294;42.666;23.350;2024-03-06T07:34:38;94814.69;;;10.24;76.81
55424;BME280;41294;42.666;23.350;2024-03-06T07:37:04;94813.53;;;10.43;75.64
55424;BME280;41294;42.666;23.350;2024-03-06T07:39:29;94819.28;;;11.69;71.99
55424;BME280;41294;42.666;23.350;2024-03-06T07:41:56;94822.28;;;12.70;66.78
55424;BME280;41294;42.666;23.350;2024-03-06T07:44:22;94811.38;;;12.62;65.61
55424;BME280;41294;42.666;23.350;2024-03-06T07:46:47;94817.91;;;11.41;68.70
55424;BME280;41294;42.666;23.350;2024-03-06T07:49:14;94820.22;;;11.07;71.66
55424;BME280;41294;42.666;23.350;2024-03-06T07:51:39;94815.88;;;12.47;69.05
55424;BME280;41294;42.666;23.350;2024-03-06T07:54:08;94820.75;;;11.70;69.69
55424;BME280;41294;42.666;23.350;2024-03-06T07:56:33;94819.63;;;11.03;71.55
55424;BME280;41294;42.666;23.350;2024-03-06T07:59:00;94815.72;;;10.71;73.50
55424;BME280;41294;42.666;23.350;2024-03-06T08:01:25;94814.66;;;10.96;72.88
55424;BME280;41294;42.666;23.350;2024-03-06T08:03:54;94808.84;;;10.92;73.96
55424;BME280;41294;42.666;23.350;2024-03-06T08:06:21;94818.81;;;11.38;72.17
55424;BME280;41294;42.666;23.350;2024-03-06T08:08:46;94819.75;;;11.08;72.10
55424;BME280;41294;42.666;23.350;2024-03-06T08:11:13;94822.44;;;10.37;75.32
55424;BME280;41294;42.666;23.350;2024-03-06T08:13:39;94828.63;;;9.77;78.20
55424;BME280;41294;42.666;23.350;2024-03-06T08:16:05;94822.06;;;9.90;78.25
55424;BME280;41294;42.666;23.350;2024-03-06T08:18:32;94830.50;;;10.42;75.81
55424;BME280;41294;42.666;23.350;2024-03-06T08:20:58;94827.44;;;10.53;76.17
55424;BME280;41294;42.666;23.350;2024-03-06T08:23:23;94819.97;;;10.42;76.48
55424;BME280;41294;42.666;23.350;2024-03-06T08:25:50;94819.97;;;10.60;75.39
55424;BME280;41294;42.666;23.350;2024-03-06T08:28:16;94827.09;;;11.87;71.14
55424;BME280;41294;42.666;23.350;2024-03-06T08:30:42;94818.19;;;11.84;70.09
55424;BME280;41294;42.666;23.350;2024-03-06T08:33:09;94815.38;;;12.58;68.26
55424;BME280;41294;42.666;23.350;2024-03-06T08:35:34;94817.53;;;14.09;62.35
55424;BME280;41294;42.666;23.350;2024-03-06T08:38:00;94813.19;;;14.66;60.05
55424;BME280;41294;42.666;23.350;2024-03-06T08:40:25;94810.91;;;15.91;56.21
55424;BME280;41294;42.666;23.350;2024-03-06T08:42:53;94825.13;;;16.30;54.55
55424;BME280;41294;42.666;23.350;2024-03-06T08:45:19;94812.63;;;17.43;51.76
55424;BME280;41294;42.666;23.350;2024-03-06T08:47:45;94816.66;;;18.31;48.32
55424;BME280;41294;42.666;23.350;2024-03-06T08:50:12;94813.78;;;17.97;48.27
55424;BME280;41294;42.666;23.350;2024-03-06T08:52:39;94821.59;;;17.84;48.22
55424;BME280;41294;42.666;23.350;2024-03-06T08:55:06;94814.06;;;17.17;48.63
55424;BME280;41294;42.666;23.350;2024-03-06T08:57:36;94815.31;;;17.65;48.39
55424;BME280;41294;42.666;23.350;2024-03-06T09:00:03;94816.72;;;18.72;46.54
55424;BME280;41294;42.666;23.350;2024-03-06T09:02:29;94813.88;;;19.10;44.09
55424;BME280;41294;42.666;23.350;2024-03-06T09:04:55;94806.28;;;18.79;44.71
55424;BME280;41294;42.666;23.350;2024-03-06T09:07:20;94812.88;;;18.67;45.05
55424;BME280;41294;42.666;23.350;2024-03-06T09:09:49;94819.13;;;17.97;46.96
55424;BME280;41294;42.666;23.350;2024-03-06T09:12:17;94815.47;;;19.29;44.09
55424;BME280;41294;42.666;23.350;2024-03-06T09:14:43;94820.97;;;16.70;48.56
55424;BME280;41294;42.666;23.350;2024-03-06T09:17:10;94812.56;;;15.88;51.46
55424;BME280;41294;42.666;23.350;2024-03-06T09:19:39;94814.19;;;14.08;57.18
55424;BME280;41294;42.666;23.350;2024-03-06T09:22:05;94804.94;;;13.35;61.03
55424;BME280;41294;42.666;23.350;2024-03-06T09:24:31;94803.28;;;14.41;58.25
55424;BME280;41294;42.666;23.350;2024-03-06T09:26:56;94811.84;;;16.30;52.50
55424;BME280;41294;42.666;23.350;2024-03-06T09:29:22;94811.78;;;16.77;50.04
55424;BME280;41294;42.666;23.350;2024-03-06T09:31:47;94801.25;;;17.37;48.38
55424;BME280;41294;42.666;23.350;2024-03-06T09:34:14;94798.31;;;17.13;48.58
55424;BME280;41294;42.666;23.350;2024-03-06T09:36:41;94805.03;;;18.13;46.29
55424;BME280;41294;42.666;23.350;2024-03-06T09:39:16;94794.47;;;17.69;45.60
55424;BME280;41294;42.666;23.350;2024-03-06T09:41:54;94804.09;;;18.10;45.42
55424;BME280;41294;42.666;23.350;2024-03-06T09:44:21;94805.09;;;18.69;43.35
55424;BME280;41294;42.666;23.350;2024-03-06T09:46:48;94793.66;;;18.12;45.82
55424;BME280;41294;42.666;23.350;2024-03-06T09:49:19;94798.78;;;16.95;46.68
55424;BME280;41294;42.666;23.350;2024-03-06T09:51:48;94795.38;;;16.20;50.42
55424;BME280;41294;42.666;23.350;2024-03-06T09:54:19;94790.84;;;17.61;45.06
55424;BME280;41294;42.666;23.350;2024-03-06T09:56:46;94784.31;;;17.78;44.46
55424;BME280;41294;42.666;23.350;2024-03-06T09:59:13;94782.16;;;17.60;44.76
55424;BME280;41294;42.666;23.350;2024-03-06T10:01:48;94786.16;;;18.11;44.09
55424;BME280;41294;42.666;23.350;2024-03-06T10:04:27;94769.47;;;18.72;43.24
55424;BME280;41294;42.666;23.350;2024-03-06T10:06:55;94775.88;;;18.47;41.95
55424;BME280;41294;42.666;23.350;2024-03-06T10:09:21;94775.06;;;16.81;45.61
55424;BME280;41294;42.666;23.350;2024-03-06T10:11:48;94763.75;;;17.46;45.20
55424;BME280;41294;42.666;23.350;2024-03-06T10:14:14;94763.22;;;18.64;42.44
55424;BME280;41294;42.666;23.350;2024-03-06T10:16:57;94761.00;;;19.03;41.92
55424;BME280;41294;42.666;23.350;2024-03-06T10:19:25;94760.88;;;19.54;40.95
55424;BME280;41294;42.666;23.350;2024-03-06T10:21:53;94756.97;;;19.84;39.28
55424;BME280;41294;42.666;23.350;2024-03-06T10:24:26;94761.22;;;20.22;39.81
55424;BME280;41294;42.666;23.350;2024-03-06T10:26:54;94760.63;;;20.05;39.55
55424;BME280;41294;42.666;23.350;2024-03-06T10:29:21;94759.13;;;20.34;38.70
55424;BME280;41294;42.666;23.350;2024-03-06T10:31:55;94751.19;;;20.83;38.05
55424;BME280;41294;42.666;23.350;2024-03-06T10:34:21;94748.72;;;20.49;37.22
55424;BME280;41294;42.666;23.350;2024-03-06T10:37:01;94744.13;;;19.83;37.51
55424;BME280;41294;42.666;23.350;2024-03-06T10:39:30;94738.16;;;19.13;38.69
55424;BME280;41294;42.666;23.350;2024-03-06T10:41:57;94748.50;;;18.87;39.41
55424;BME280;41294;42.666;23.350;2024-03-06T10:44:26;94740.88;;;18.67;39.70
55424;BME280;41294;42.666;23.350;2024-03-06T10:46:58;94732.84;;;18.21;40.48
55424;BME280;41294;42.666;23.350;2024-03-06T10:49:26;94729.97;;;18.09;41.52
55424;BME280;41294;42.666;23.350;2024-03-06T10:51:56;94719.69;;;18.80;39.90
55424;BME280;41294;42.666;23.350;2024-03-06T10:54:26;94718.41;;;17.90;41.64
55424;BME280;41294;42.666;23.350;2024-03-06T10:56:53;94706.81;;;18.44;41.02
55424;BME280;41294;42.666;23.350;2024-03-06T10:59:20;94710.69;;;19.18;39.68
55424;BME280;41294;42.666;23.350;2024-03-06T11:01:46;94703.59;;;18.91;38.88
55424;BME280;41294;42.666;23.350;2024-03-06T11:04:13;94699.41;;;18.66;39.87
55424;BME280;41294;42.666;23.350;2024-03-06T11:06:38;94700.50;;;19.46;39.39
55424;BME280;41294;42.666;23.350;2024-03-06T11:09:04;94695.81;;;20.42;38.27
55424;BME280;41294;42.666;23.350;2024-03-06T11:11:31;94688.81;;;20.88;37.00
55424;BME280;41294;42.666;23.350;2024-03-06T11:14:03;94684.72;;;20.69;36.20
55424;BME280;41294;42.666;23.350;2024-03-06T11:16:32;94686.25;;;19.62;37.72
55424;BME280;41294;42.666;23.350;2024-03-06T11:19:17;94679.28;;;18.65;39.52
55424;BME280;41294;42.666;23.350;2024-03-06T11:21:46;94673.44;;;18.37;39.93
55424;BME280;41294;42.666;23.350;2024-03-06T11:24:14;94668.91;;;18.62;39.62
55424;BME280;41294;42.666;23.350;2024-03-06T11:27:07;94672.25;;;19.56;38.09
55424;BME280;41294;42.666;23.350;2024-03-06T11:30:07;94672.00;;;20.20;36.91
55424;BME280;41294;42.666;23.350;2024-03-06T11:32:57;94660.53;;;20.43;36.73
55424;BME280;41294;42.666;23.350;2024-03-06T11:35:23;94655.25;;;20.38;36.62
55424;BME280;41294;42.666;23.350;2024-03-06T11:37:50;94649.97;;;20.32;36.24
55424;BME280;41294;42.666;23.350;2024-03-06T11:40:22;94656.41;;;20.24;36.28
55424;BME280;41294;42.666;23.350;2024-03-06T11:42:49;94646.59;;;19.89;36.45
55424;BME280;41294;42.666;23.350;2024-03-06T11:45:19;94650.84;;;20.03;36.54
55424;BME280;41294;42.666;23.350;2024-03-06T11:47:57;94643.41;;;20.15;36.39
55424;BME280;41294;42.666;23.350;2024-03-06T11:50:25;94638.09;;;19.91;35.21
55424;BME280;41294;42.666;23.350;2024-03-06T11:52:51;94634.25;;;20.10;35.39
55424;BME280;41294;42.666;23.350;2024-03-06T11:55:17;94640.91;;;20.22;35.11
55424;BME280;41294;42.666;23.350;2024-03-06T11:57:42;94638.22;;;20.22;35.43
55424;BME280;41294;42.666;23.350;2024-03-06T12:00:08;94636.22;;;18.56;38.51
55424;BME280;41294;42.666;23.350;2024-03-06T12:02:36;94629.66;;;18.22;38.83
55424;BME280;41294;42.666;23.350;2024-03-06T12:05:02;94624.16;;;17.47;40.34
55424;BME280;41294;42.666;23.350;2024-03-06T12:07:28;94630.50;;;16.89;41.11
55424;BME280;41294;42.666;23.350;2024-03-06T12:09:53;94630.00;;;17.07;41.04
55424;BME280;41294;42.666;23.350;2024-03-06T12:12:19;94621.09;;;16.55;41.92
55424;BME280;41294;42.666;23.350;2024-03-06T12:14:58;94616.59;;;17.56;41.46
55424;BME280;41294;42.666;23.350;2024-03-06T12:17:29;94621.13;;;17.78;39.71
55424;BME280;41294;42.666;23.350;2024-03-06T12:19:55;94614.56;;;16.35;41.64
55424;BME280;41294;42.666;23.350;2024-03-06T12:22:25;94612.81;;;16.15;42.27
55424;BME280;41294;42.666;23.350;2024-03-06T12:25:00;94609.16;;;16.02;42.46
55424;BME280;41294;42.666;23.350;2024-03-06T12:27:26;94608.03;;;16.30;42.14
55424;BME280;41294;42.666;23.350;2024-03-06T12:29:52;94609.91;;;16.24;42.35
55424;BME280;41294;42.666;23.350;2024-03-06T12:32:18;94607.81;;;16.66;42.04
55424;BME280;41294;42.666;23.350;2024-03-06T12:34:43;94609.19;;;17.28;40.75
55424;BME280;41294;42.666;23.350;2024-03-06T12:37:09;94604.28;;;17.59;40.01
55424;BME280;41294;42.666;23.350;2024-03-06T12:39:37;94608.47;;;17.22;40.35
55424;BME280;41294;42.666;23.350;2024-03-06T12:42:03;94596.09;;;17.46;40.20
55424;BME280;41294;42.666;23.350;2024-03-06T12:44:28;94606.47;;;17.49;39.91
55424;BME280;41294;42.666;23.350;2024-03-06T12:46:54;94612.56;;;17.17;43.08
55424;BME280;41294;42.666;23.350;2024-03-06T12:49:19;94602.72;;;16.41;46.58
55424;BME280;41294;42.666;23.350;2024-03-06T12:51:45;94605.00;;;15.84;48.72
55424;BME280;41294;42.666;23.350;2024-03-06T12:54:10;94607.78;;;15.06;51.69